TimeMST,TemperatureF,Dew PointF,Humidity,Sea Level PressureIn,VisibilityMPH,Wind Direction,Wind SpeedMPH,Gust SpeedMPH,PrecipitationIn,Events,Conditions,WindDirDegrees,DateUTC
12:15 AM,-11.2,-14.8,84,30.11,10.0,Calm,Calm,-,N/A,,Clear,0,2012-12-29 07:15:00
12:35 AM,-11.2,-14.8,84,30.11,10.0,Calm,Calm,-,N/A,,Clear,0,2012-12-29 07:35:00
12:55 AM,-11.2,-14.8,84,30.11,10.0,North,3.5,-,N/A,,Clear,360,2012-12-29 07:55:00
1:15 AM,-13.0,-16.6,84,30.11,10.0,NNW,3.5,-,N/A,,Clear,330,2012-12-29 08:15:00
1:35 AM,-14.8,-18.4,84,30.11,10.0,West,6.9,-,N/A,,Clear,270,2012-12-29 08:35:00
1:55 AM,-14.8,-18.4,84,30.11,10.0,West,4.6,-,N/A,,Clear,280,2012-12-29 08:55:00
2:15 AM,-13.0,-16.6,84,30.11,10.0,WNW,6.9,-,N/A,,Clear,300,2012-12-29 09:15:00
2:35 AM,-14.8,-18.4,84,30.12,10.0,WNW,4.6,-,N/A,,Scattered Clouds,300,2012-12-29 09:35:00
2:55 AM,-13.0,-16.6,84,30.13,10.0,NW,5.8,-,N/A,,Clear,310,2012-12-29 09:55:00
3:15 AM,-13.0,-16.6,84,30.13,10.0,NW,3.5,-,N/A,,Clear,310,2012-12-29 10:15:00
3:35 AM,-13.0,-16.6,84,30.13,10.0,West,4.6,-,N/A,,Clear,280,2012-12-29 10:35:00
3:55 AM,-13.0,-16.6,84,30.11,10.0,West,6.9,-,N/A,,Clear,270,2012-12-29 10:55:00
4:15 AM,-13.0,-14.8,92,30.11,10.0,West,10.4,-,N/A,,Clear,260,2012-12-29 11:15:00
4:35 AM,-13.0,-18.4,77,30.11,10.0,NW,6.9,-,N/A,,Clear,310,2012-12-29 11:35:00
5:15 AM,-16.6,-22.0,76,30.11,10.0,WNW,5.8,-,N/A,,Clear,300,2012-12-29 12:15:00
5:35 AM,-14.8,-18.4,84,30.11,10.0,WNW,3.5,-,N/A,,Clear,290,2012-12-29 12:35:00
5:55 AM,-13.0,-16.6,84,30.11,10.0,West,4.6,-,N/A,,Clear,270,2012-12-29 12:55:00
6:15 AM,-13.0,-16.6,84,30.11,10.0,Calm,Calm,-,N/A,,Clear,0,2012-12-29 13:15:00
6:35 AM,-13.0,-16.6,84,30.11,10.0,Calm,Calm,-,N/A,,Clear,0,2012-12-29 13:35:00
6:55 AM,-16.6,-22.0,76,30.11,10.0,Calm,Calm,-,N/A,,Clear,0,2012-12-29 13:55:00
7:15 AM,-16.6,-22.0,76,30.11,10.0,East,3.5,-,N/A,,Clear,90,2012-12-29 14:15:00
7:35 AM,-16.6,-20.2,84,30.11,10.0,Calm,Calm,-,N/A,,Clear,0,2012-12-29 14:35:00
7:55 AM,-16.6,-20.2,84,30.13,10.0,Calm,Calm,-,N/A,,Clear,0,2012-12-29 14:55:00
8:15 AM,-14.8,-18.4,84,30.13,10.0,WNW,3.5,-,N/A,,Clear,290,2012-12-29 15:15:00
8:35 AM,-13.0,-18.4,77,30.13,10.0,Calm,Calm,-,N/A,,Clear,0,2012-12-29 15:35:00
8:55 AM,-13.0,-16.6,84,30.13,10.0,Calm,Calm,-,N/A,,Clear,0,2012-12-29 15:55:00
9:15 AM,-9.4,-14.8,77,30.13,10.0,Calm,Calm,-,N/A,,Clear,0,2012-12-29 16:15:00
9:35 AM,-7.6,-13.0,77,30.13,10.0,Calm,Calm,-,N/A,,Clear,0,2012-12-29 16:35:00
9:55 AM,-5.8,-9.4,84,30.13,10.0,Calm,Calm,-,N/A,,Clear,0,2012-12-29 16:55:00
10:15 AM,-5.8,-9.4,84,30.13,10.0,NW,3.5,-,N/A,,Clear,310,2012-12-29 17:15:00
10:35 AM,-4.0,-7.6,85,30.13,10.0,Calm,Calm,-,N/A,,Clear,0,2012-12-29 17:35:00
10:55 AM,-0.4,-5.8,78,30.11,10.0,Calm,Calm,-,N/A,,Clear,0,2012-12-29 17:55:00
11:15 AM,1.4,-2.2,85,30.10,10.0,Calm,Calm,-,N/A,,Clear,0,2012-12-29 18:15:00
11:55 AM,5.0,-0.4,78,30.08,10.0,Calm,Calm,-,N/A,,Clear,0,2012-12-29 18:55:00
12:15 PM,5.0,-0.4,78,30.07,10.0,Calm,Calm,-,N/A,,Scattered Clouds,0,2012-12-29 19:15:00
12:35 PM,5.0,-0.4,78,30.05,10.0,Calm,Calm,-,N/A,,Scattered Clouds,0,2012-12-29 19:35:00
12:55 PM,10.4,1.4,67,30.03,10.0,Calm,Calm,-,N/A,,Clear,0,2012-12-29 19:55:00
1:15 PM,10.4,-0.4,62,30.02,10.0,NW,3.5,-,N/A,,Clear,320,2012-12-29 20:15:00
1:35 PM,12.2,1.4,62,30.01,10.0,Calm,Calm,-,N/A,,Clear,0,2012-12-29 20:35:00
1:55 PM,14.0,1.4,57,30.00,10.0,Calm,Calm,-,N/A,,Clear,0,2012-12-29 20:55:00
2:15 PM,12.2,1.4,62,30.01,10.0,East,3.5,-,N/A,,Clear,100,2012-12-29 21:15:00
2:35 PM,10.4,1.4,67,30.00,10.0,East,4.6,-,N/A,,Clear,80,2012-12-29 21:35:00
2:55 PM,8.6,-0.4,67,30.00,10.0,Calm,Calm,-,N/A,,Scattered Clouds,0,2012-12-29 21:55:00
3:15 PM,12.2,1.4,62,29.99,10.0,Calm,Calm,-,N/A,,Mostly Cloudy,0,2012-12-29 22:15:00
3:35 PM,10.4,1.4,67,29.98,10.0,Calm,Calm,-,N/A,,Mostly Cloudy,0,2012-12-29 22:35:00
4:15 PM,10.4,1.4,67,29.97,10.0,SW,3.5,-,N/A,,Scattered Clouds,220,2012-12-29 23:15:00
4:35 PM,6.8,-0.4,72,29.97,10.0,Calm,Calm,-,N/A,,Scattered Clouds,0,2012-12-29 23:35:00
4:55 PM,3.2,-4.0,72,29.97,10.0,ENE,4.6,-,N/A,,Mostly Cloudy,60,2012-12-29 23:55:00
5:15 PM,-0.4,-5.8,78,29.96,10.0,ENE,4.6,-,N/A,,Scattered Clouds,70,2012-12-30 00:15:00
5:35 PM,-2.2,-5.8,85,29.95,10.0,North,3.5,-,N/A,,Scattered Clouds,10,2012-12-30 00:35:00
5:55 PM,-4.0,-7.6,85,29.95,10.0,WSW,5.8,-,N/A,,Mostly Cloudy,250,2012-12-30 00:55:00
6:15 PM,-5.8,-9.4,84,29.94,10.0,West,4.6,-,N/A,,Mostly Cloudy,280,2012-12-30 01:15:00
6:35 PM,-5.8,-9.4,84,29.95,10.0,NW,4.6,-,N/A,,Scattered Clouds,310,2012-12-30 01:35:00
6:55 PM,-9.4,-14.8,77,29.95,10.0,NNW,3.5,-,N/A,,Mostly Cloudy,340,2012-12-30 01:55:00
7:15 PM,-7.6,-9.4,92,29.95,10.0,West,4.6,-,N/A,,Scattered Clouds,270,2012-12-30 02:15:00
7:35 PM,-9.4,-13.0,84,29.95,10.0,Calm,Calm,-,N/A,,Clear,0,2012-12-30 02:35:00
7:55 PM,-9.4,-13.0,84,29.95,10.0,Calm,Calm,-,N/A,,Clear,0,2012-12-30 02:55:00
8:15 PM,-13.0,-14.8,92,29.95,10.0,West,6.9,-,N/A,,Scattered Clouds,270,2012-12-30 03:15:00
8:35 PM,-14.8,-18.4,84,29.95,10.0,WNW,6.9,-,N/A,,Scattered Clouds,300,2012-12-30 03:35:00
8:55 PM,-13.0,-18.4,77,29.97,10.0,NW,8.1,-,N/A,,Mostly Cloudy,310,2012-12-30 03:55:00
9:15 PM,-7.6,-13.0,77,29.97,10.0,NW,5.8,-,N/A,,Overcast,310,2012-12-30 04:15:00
9:35 PM,-7.6,-9.4,92,29.96,10.0,WNW,5.8,-,N/A,,Overcast,300,2012-12-30 04:35:00
9:55 PM,-7.6,-13.0,77,29.95,10.0,West,8.1,-,N/A,,Overcast,260,2012-12-30 04:55:00
10:15 PM,-5.8,-9.4,84,29.95,10.0,WNW,4.6,-,N/A,,Mostly Cloudy,290,2012-12-30 05:15:00
10:35 PM,-5.8,-9.4,84,29.95,10.0,WNW,5.8,-,N/A,,Mostly Cloudy,300,2012-12-30 05:35:00
10:55 PM,-4.0,-7.6,85,29.95,10.0,WNW,4.6,-,N/A,,Mostly Cloudy,290,2012-12-30 05:55:00
11:15 PM,-4.0,-7.6,85,29.95,10.0,West,4.6,-,N/A,,Overcast,270,2012-12-30 06:15:00
11:55 PM,-0.4,-5.8,78,29.95,10.0,West,4.6,-,N/A,,Overcast,270,2012-12-30 06:55:00